< < Back
Terminal Aerodrome Forecast


Current Version              Previous Versions:   1  2  3  4  5  6  7  8  9  

Terminal Aerodrome Forecast

691
FTUS44 KMRX 060525
TAFTYS
TAF
KTYS 060525Z 0606/0706 VRB04KT P6SM BKN250
     FM061800 28004KT P6SM OVC250=

Latest METAR

670
SAUS80 KWBC 060900 RRC
MTRTYS
METAR KTYS 060853Z 00000KT 10SM BKN250 M02/M06 A3036 RMK AO2 SLP285
T10221061 58009


USA.gov is the U.S. government's official web portal to all federal, state and local government web resources and services.